createdAt,value
2023-03-02T00:01:43.631Z,64.66
2023-03-02T00:04:21.443Z,64.85
2023-03-02T00:06:49.074Z,65.36
2023-03-02T00:09:15.679Z,64.84
2023-03-02T00:11:42.318Z,65.38
2023-03-02T00:14:08.742Z,65.63
2023-03-02T00:16:35.415Z,65.49
2023-03-02T00:19:01.901Z,65.55
2023-03-02T00:21:28.306Z,65.73
2023-03-02T00:23:54.763Z,66.09
2023-03-02T00:26:21.191Z,65.80
2023-03-02T00:28:47.720Z,65.62
2023-03-02T00:31:14.550Z,65.50
2023-03-02T00:33:41.034Z,65.32
2023-03-02T00:36:15.054Z,65.71
2023-03-02T00:38:41.505Z,66.07
2023-03-02T00:41:07.920Z,65.59
2023-03-02T00:43:34.332Z,65.91
2023-03-02T00:46:09.041Z,66.05
2023-03-02T00:48:35.712Z,66.09
2023-03-02T00:51:02.134Z,66.75
2023-03-02T00:53:28.547Z,66.76
2023-03-02T00:55:55.297Z,66.67
2023-03-02T00:58:21.890Z,66.96
2023-03-02T01:00:48.755Z,67.12
2023-03-02T01:03:15.359Z,67.26
2023-03-02T01:05:41.824Z,67.05
2023-03-02T01:08:08.250Z,67.44
2023-03-02T01:10:34.799Z,67.77
2023-03-02T01:13:01.464Z,67.61
2023-03-02T01:15:27.886Z,67.83
2023-03-02T01:17:54.297Z,67.90
2023-03-02T01:20:20.785Z,67.79
2023-03-02T01:22:47.290Z,67.84
2023-03-02T01:25:13.734Z,68.04
2023-03-02T01:27:40.156Z,68.08
2023-03-02T01:30:07.160Z,68.20
2023-03-02T01:32:33.679Z,68.17
2023-03-02T01:35:00.118Z,68.12
2023-03-02T01:37:26.522Z,68.12
2023-03-02T01:39:52.948Z,68.55
2023-03-02T01:42:19.353Z,68.44
2023-03-02T01:44:48.425Z,68.47
2023-03-02T01:47:14.737Z,68.72
2023-03-02T01:49:57.328Z,68.41
2023-03-02T01:52:24.285Z,68.46
2023-03-02T01:54:51.760Z,68.39
2023-03-02T01:57:22.699Z,68.38
2023-03-02T01:59:51.003Z,68.35
2023-03-02T02:02:17.499Z,68.25
2023-03-02T02:04:45.580Z,68.30
2023-03-02T02:07:12.015Z,68.46
2023-03-02T02:09:44.766Z,67.76
2023-03-02T02:12:16.227Z,68.09
2023-03-02T02:14:43.346Z,67.70
2023-03-02T02:17:10.279Z,67.45
2023-03-02T02:20:00.476Z,67.66
2023-03-02T02:22:39.442Z,67.56
2023-03-02T02:25:12.085Z,67.56
2023-03-02T02:27:38.513Z,67.82
2023-03-02T02:30:06.709Z,67.73
2023-03-02T02:32:36.497Z,67.97
2023-03-02T02:35:07.333Z,68.44
2023-03-02T02:37:43.256Z,68.67
2023-03-02T02:40:17.916Z,68.62
2023-03-02T02:42:46.491Z,69.27
2023-03-02T02:45:22.266Z,69.42
2023-03-02T02:47:49.442Z,69.80
2023-03-02T02:50:23.249Z,70.36
2023-03-02T02:52:57.809Z,70.24
2023-03-02T02:55:24.779Z,70.51
2023-03-02T02:57:53.968Z,70.59
2023-03-02T03:00:21.635Z,71.16
2023-03-02T03:02:53.780Z,71.45
2023-03-02T03:05:20.186Z,71.59
2023-03-02T03:07:46.694Z,71.74
2023-03-02T03:10:29.240Z,71.84
2023-03-02T03:12:55.739Z,73.00
2023-03-02T03:15:22.840Z,73.08
2023-03-02T03:17:58.738Z,73.60
2023-03-02T03:20:26.492Z,73.86
2023-03-02T03:22:53.513Z,73.86
2023-03-02T03:25:25.879Z,74.09
2023-03-02T03:27:52.305Z,74.87
2023-03-02T03:30:18.727Z,75.71
2023-03-02T03:32:45.161Z,75.69
2023-03-02T03:35:12.165Z,75.97
2023-03-02T03:37:42.083Z,76.48
2023-03-02T03:40:09.790Z,76.46
2023-03-02T03:42:37.883Z,76.90
2023-03-02T03:45:05.850Z,77.34
2023-03-02T03:47:32.307Z,77.91
2023-03-02T03:49:58.718Z,78.03
2023-03-02T03:52:33.958Z,77.98
2023-03-02T03:55:01.240Z,78.34
2023-03-02T03:57:28.679Z,78.51
2023-03-02T03:59:55.288Z,79.00
2023-03-02T04:02:22.199Z,79.60
2023-03-02T04:04:48.664Z,79.59
2023-03-02T04:07:15.115Z,79.68
2023-03-02T04:09:41.726Z,80.34
2023-03-02T04:12:08.946Z,80.41
2023-03-02T04:14:35.853Z,80.29
2023-03-02T04:17:05.349Z,80.74
2023-03-02T04:19:32.396Z,81.00
2023-03-02T04:21:59.476Z,80.83
2023-03-02T04:24:25.989Z,81.56
2023-03-02T04:26:52.559Z,81.43
2023-03-02T04:29:19.099Z,81.57
2023-03-02T04:31:45.865Z,81.72
2023-03-02T04:34:12.274Z,81.59
2023-03-02T04:36:40.125Z,81.77
2023-03-02T04:39:07.252Z,82.29
2023-03-02T04:41:33.861Z,82.50
2023-03-02T04:44:00.258Z,82.76
2023-03-02T04:46:27.695Z,83.03
2023-03-02T04:48:54.948Z,83.43
2023-03-02T04:51:27.151Z,84.03
2023-03-02T04:53:56.079Z,84.06
2023-03-02T04:56:22.808Z,83.94
2023-03-02T04:58:49.492Z,83.52
2023-03-02T05:01:17.044Z,83.83
2023-03-02T05:03:43.632Z,83.91
2023-03-02T05:06:10.439Z,83.96
2023-03-02T05:08:37.123Z,84.45
2023-03-02T05:11:03.659Z,85.52
2023-03-02T05:13:30.260Z,85.58
2023-03-02T05:15:58.278Z,86.73
2023-03-02T05:18:25.306Z,86.85
2023-03-02T05:20:52.822Z,87.23
2023-03-02T05:23:27.508Z,87.99
2023-03-02T05:25:55.824Z,88.46
2023-03-02T05:28:24.547Z,89.05
2023-03-02T05:30:51.513Z,89.07
2023-03-02T05:33:18.690Z,90.28
2023-03-02T05:35:45.816Z,90.36
2023-03-02T05:38:12.279Z,90.44
2023-03-02T05:40:39.725Z,90.87
2023-03-02T05:43:06.533Z,91.10
2023-03-02T05:45:36.209Z,91.48
2023-03-02T05:48:03.142Z,91.56
2023-03-02T05:50:29.632Z,91.73
2023-03-02T05:52:56.087Z,92.17
2023-03-02T05:55:22.550Z,92.63
2023-03-02T05:57:49.428Z,92.84
2023-03-02T06:00:17.391Z,93.39
2023-03-02T06:02:43.969Z,93.37
2023-03-02T06:05:16.760Z,93.56
2023-03-02T06:07:43.375Z,93.61
2023-03-02T06:10:11.624Z,94.05
2023-03-02T06:12:38.610Z,93.62
2023-03-02T06:15:06.662Z,93.75
2023-03-02T06:17:33.216Z,94.57
2023-03-02T06:19:59.657Z,95.27
2023-03-02T06:22:26.130Z,95.10
2023-03-02T06:24:55.103Z,95.51
2023-03-02T06:27:21.833Z,96.06
2023-03-02T06:29:48.256Z,95.94
2023-03-02T06:32:14.790Z,96.87
2023-03-02T06:34:41.275Z,96.87
2023-03-02T06:37:07.684Z,97.26
2023-03-02T06:39:34.203Z,97.29
2023-03-02T06:42:00.676Z,97.47
2023-03-02T06:44:27.099Z,97.83
2023-03-02T06:46:53.528Z,97.69
2023-03-02T06:49:19.944Z,98.05
2023-03-02T06:51:46.428Z,98.18
2023-03-02T06:54:12.950Z,98.10
2023-03-02T06:56:41.006Z,98.09
2023-03-02T06:59:07.676Z,98.18
2023-03-02T07:01:36.182Z,98.20
2023-03-02T07:04:03.310Z,98.43
2023-03-02T07:06:29.807Z,98.54
2023-03-02T07:08:57.237Z,98.42
2023-03-02T07:11:23.847Z,98.47
2023-03-02T07:13:50.999Z,98.29
2023-03-02T07:16:17.418Z,98.59
2023-03-02T07:18:43.897Z,98.58
2023-03-02T07:21:10.318Z,98.13
2023-03-02T07:23:36.749Z,98.58
2023-03-02T07:26:08.240Z,98.59
2023-03-02T07:28:43.324Z,99.11
2023-03-02T07:31:10.849Z,99.04
2023-03-02T07:33:38.818Z,98.74
2023-03-02T07:36:07.009Z,98.82
2023-03-02T07:38:33.791Z,98.88
2023-03-02T07:41:00.196Z,98.86
2023-03-02T07:43:28.710Z,99.07
2023-03-02T07:45:55.118Z,98.97
2023-03-02T07:48:23.284Z,98.82
2023-03-02T07:50:49.720Z,98.19
2023-03-02T07:53:16.130Z,98.17
2023-03-02T07:55:42.603Z,98.31
2023-03-02T07:58:09.015Z,98.32
2023-03-02T08:00:36.694Z,98.32
2023-03-02T08:03:03.193Z,98.41
2023-03-02T08:05:30.461Z,98.18
2023-03-02T08:07:56.893Z,98.30
2023-03-02T08:10:23.298Z,97.80
2023-03-02T08:12:49.743Z,98.00
2023-03-02T08:15:16.215Z,97.92
2023-03-02T08:17:42.629Z,97.62
2023-03-02T08:20:09.583Z,97.40
2023-03-02T08:22:36.423Z,97.86
2023-03-02T08:25:03.009Z,97.43
2023-03-02T08:27:29.497Z,97.73
2023-03-02T08:29:56.722Z,97.73
2023-03-02T08:32:23.195Z,97.56
2023-03-02T08:34:51.743Z,97.78
2023-03-02T08:37:21.230Z,97.36
2023-03-02T08:39:48.409Z,97.06
2023-03-02T08:42:14.822Z,97.02
2023-03-02T08:44:41.262Z,96.79
2023-03-02T08:47:07.674Z,96.93
2023-03-02T08:49:34.094Z,96.86
2023-03-02T08:52:00.723Z,96.89
2023-03-02T08:54:27.238Z,96.61
2023-03-02T08:56:53.666Z,96.66
2023-03-02T08:59:21.626Z,96.12
2023-03-02T09:01:48.161Z,96.09
2023-03-02T09:04:14.825Z,96.24
2023-03-02T09:06:43.645Z,95.95
2023-03-02T09:09:11.391Z,95.96
2023-03-02T09:11:38.256Z,95.57
2023-03-02T09:14:05.185Z,95.54
2023-03-02T09:16:31.934Z,95.14
2023-03-02T09:18:58.388Z,94.89
2023-03-02T09:21:24.910Z,94.50
2023-03-02T09:23:57.879Z,94.13
2023-03-02T09:26:25.761Z,94.11
2023-03-02T09:28:52.963Z,93.84
2023-03-02T09:31:19.451Z,93.39
2023-03-02T09:33:45.916Z,93.12
2023-03-02T09:36:20.915Z,93.30
2023-03-02T09:38:48.204Z,92.64
2023-03-02T09:41:20.637Z,92.80
2023-03-02T09:44:02.186Z,92.65
2023-03-02T09:46:49.976Z,91.89
2023-03-02T09:49:47.447Z,92.00
2023-03-02T09:52:31.004Z,91.09
2023-03-02T09:55:20.815Z,90.80
2023-03-02T09:57:47.556Z,90.99
2023-03-02T10:00:19.627Z,90.81
2023-03-02T10:02:49.599Z,90.85
2023-03-02T10:05:45.588Z,90.49
2023-03-02T10:08:17.333Z,90.25
2023-03-02T10:10:58.001Z,90.09
2023-03-02T10:13:42.313Z,90.22
2023-03-02T10:16:24.031Z,89.86
2023-03-02T10:19:14.788Z,89.49
2023-03-02T10:21:43.544Z,89.12
2023-03-02T10:24:36.315Z,89.17
2023-03-02T10:27:20.447Z,88.93
2023-03-02T10:29:51.352Z,88.56
2023-03-02T10:32:33.400Z,88.38
2023-03-02T10:35:02.665Z,88.53
2023-03-02T10:37:30.587Z,88.06
2023-03-02T10:39:57.217Z,88.23
2023-03-02T10:42:37.845Z,88.06
2023-03-02T10:45:27.497Z,87.39
2023-03-02T10:48:05.443Z,86.99
2023-03-02T10:50:32.321Z,86.75
2023-03-02T10:53:00.753Z,86.51
2023-03-02T10:55:28.649Z,86.25
2023-03-02T10:58:31.105Z,86.18
2023-03-02T11:01:14.076Z,85.98
2023-03-02T11:03:40.527Z,85.99
2023-03-02T11:06:18.257Z,86.11
2023-03-02T11:08:44.717Z,85.82
2023-03-02T11:11:22.442Z,85.53
2023-03-02T11:13:48.960Z,86.29
2023-03-02T11:16:18.322Z,86.24
2023-03-02T11:18:49.817Z,86.43
2023-03-02T11:21:35.601Z,85.87
2023-03-02T11:24:16.035Z,85.61
2023-03-02T11:26:56.763Z,85.50
2023-03-02T11:29:42.916Z,85.42
2023-03-02T11:32:17.537Z,85.37
2023-03-02T11:34:50.864Z,85.49
2023-03-02T11:37:34.608Z,84.69
2023-03-02T11:40:26.418Z,85.15
2023-03-02T11:42:53.308Z,85.01
2023-03-02T11:45:24.149Z,85.45
2023-03-02T11:48:03.224Z,85.10
2023-03-02T11:50:32.737Z,84.89
2023-03-02T11:53:01.526Z,84.40
2023-03-02T11:55:30.095Z,84.34
2023-03-02T12:00:41.274Z,84.06
2023-03-02T12:03:20.739Z,84.30
2023-03-02T12:06:01.809Z,84.53
2023-03-02T12:08:40.595Z,83.86
2023-03-02T12:11:19.095Z,84.21
2023-03-02T12:14:06.840Z,84.58
2023-03-02T12:16:41.710Z,83.78
2023-03-02T12:19:17.233Z,84.47
2023-03-02T12:21:56.702Z,84.13
2023-03-02T12:24:32.432Z,83.66
2023-03-02T12:27:06.290Z,84.67
2023-03-02T12:29:40.279Z,84.60
2023-03-02T12:32:23.676Z,84.50
2023-03-02T12:35:08.312Z,83.83
2023-03-02T12:37:47.547Z,84.01
2023-03-02T12:40:33.652Z,83.30
2023-03-02T12:43:28.495Z,83.30
2023-03-02T12:46:22.790Z,83.48
2023-03-02T12:49:08.714Z,83.74
2023-03-02T12:51:57.099Z,83.47
2023-03-02T12:54:26.069Z,83.47
2023-03-02T12:57:15.397Z,83.43
2023-03-02T12:59:42.422Z,83.48
2023-03-02T13:02:20.127Z,83.22
2023-03-02T13:04:57.489Z,82.95
2023-03-02T13:07:27.707Z,83.16
2023-03-02T13:09:57.144Z,82.79
2023-03-02T13:12:26.126Z,83.68
2023-03-02T13:14:54.937Z,83.16
2023-03-02T13:17:31.091Z,82.90
2023-03-02T13:20:02.083Z,82.75
2023-03-02T13:22:29.287Z,82.57
2023-03-02T13:25:03.363Z,82.29
2023-03-02T13:27:30.691Z,82.22
2023-03-02T13:30:12.716Z,81.92
2023-03-02T13:32:41.022Z,82.11
2023-03-02T13:35:26.430Z,81.94
2023-03-02T13:37:59.520Z,81.57
2023-03-02T13:40:33.581Z,81.09
2023-03-02T13:43:00.042Z,80.81
2023-03-02T13:45:28.579Z,80.65
2023-03-02T13:47:56.733Z,80.68
2023-03-02T13:50:25.912Z,80.27
2023-03-02T13:52:54.814Z,79.93
2023-03-02T13:55:22.205Z,79.89
2023-03-02T13:57:50.000Z,79.16
2023-03-02T14:00:20.093Z,79.66
2023-03-02T14:02:48.580Z,79.45
2023-03-02T14:05:21.076Z,79.27
2023-03-02T14:07:47.767Z,78.98
2023-03-02T14:10:18.090Z,78.98
2023-03-02T14:13:12.174Z,78.66
2023-03-02T14:15:41.655Z,79.04
2023-03-02T14:18:23.758Z,79.35
2023-03-02T14:20:50.235Z,79.08
2023-03-02T14:23:16.725Z,78.97
2023-03-02T14:25:43.160Z,79.11
2023-03-02T14:28:12.548Z,79.09
2023-03-02T14:30:39.988Z,78.75
2023-03-02T14:33:10.006Z,78.38
2023-03-02T14:35:36.529Z,78.83
2023-03-02T14:38:02.975Z,79.25
2023-03-02T14:40:29.492Z,79.47
2023-03-02T14:42:55.920Z,79.26
2023-03-02T14:45:23.026Z,78.63
2023-03-02T14:47:49.648Z,78.89
2023-03-02T14:50:18.926Z,78.74
2023-03-02T14:52:51.759Z,78.73
2023-03-02T14:55:29.142Z,79.25
2023-03-02T14:57:58.260Z,78.93
2023-03-02T15:00:25.377Z,78.96
2023-03-02T15:02:52.049Z,78.98
2023-03-02T15:05:19.108Z,79.16
2023-03-02T15:07:46.237Z,79.18
2023-03-02T15:10:15.701Z,79.82
2023-03-02T15:12:42.172Z,79.66
2023-03-02T15:15:09.498Z,79.58
2023-03-02T15:17:35.913Z,80.00
2023-03-02T15:20:02.329Z,80.37
2023-03-02T15:22:28.762Z,80.45
2023-03-02T15:24:55.365Z,80.65
2023-03-02T15:27:23.052Z,81.14
2023-03-02T15:29:49.501Z,81.12
2023-03-02T15:32:16.529Z,81.57
2023-03-02T15:34:43.354Z,82.11
2023-03-02T15:37:11.294Z,82.32
2023-03-02T15:39:38.002Z,82.37
2023-03-02T15:42:05.093Z,83.05
2023-03-02T15:44:31.523Z,83.41
2023-03-02T15:46:59.818Z,83.62
2023-03-02T15:49:28.470Z,83.85
2023-03-02T15:51:58.391Z,84.18
2023-03-02T15:54:25.887Z,84.38
2023-03-02T15:56:53.296Z,85.01
2023-03-02T15:59:25.374Z,85.02
2023-03-02T16:01:52.227Z,85.47
2023-03-02T16:04:18.698Z,85.75
2023-03-02T16:06:45.211Z,85.72
2023-03-02T16:09:12.032Z,86.17
2023-03-02T16:11:38.443Z,85.69
2023-03-02T16:14:05.105Z,85.96
2023-03-02T16:16:31.568Z,85.72
2023-03-02T16:18:58.568Z,86.00
2023-03-02T16:21:26.822Z,85.88
2023-03-02T16:23:53.791Z,86.14
2023-03-02T16:26:21.811Z,85.88
2023-03-02T16:28:48.721Z,86.01
2023-03-02T16:31:18.930Z,85.94
2023-03-02T16:33:46.718Z,86.38
2023-03-02T16:36:14.552Z,86.42
2023-03-02T16:38:41.166Z,86.15
2023-03-02T16:41:13.220Z,86.58
2023-03-02T16:43:45.334Z,86.59
2023-03-02T16:46:11.839Z,87.08
2023-03-02T16:48:38.279Z,86.71
2023-03-02T16:51:05.372Z,86.68
2023-03-02T16:53:31.888Z,86.65
2023-03-02T16:55:58.317Z,86.37
2023-03-02T16:58:24.941Z,87.23
2023-03-02T17:00:51.518Z,87.11
2023-03-02T17:03:18.076Z,86.62
2023-03-02T17:05:44.571Z,86.76
2023-03-02T17:08:11.994Z,86.37
2023-03-02T17:10:39.272Z,86.20
2023-03-02T17:13:05.778Z,86.99
2023-03-02T17:15:32.621Z,86.90
2023-03-02T17:17:59.060Z,87.23
2023-03-02T17:20:25.907Z,87.23
2023-03-02T17:22:52.342Z,87.46
2023-03-02T17:25:19.964Z,87.68
2023-03-02T17:27:46.444Z,88.22
2023-03-02T17:30:14.886Z,88.10
2023-03-02T17:32:41.869Z,88.29
2023-03-02T17:35:10.002Z,88.70
2023-03-02T17:37:36.824Z,89.04
2023-03-02T17:40:03.962Z,89.20
2023-03-02T17:42:30.455Z,88.96
2023-03-02T17:44:56.886Z,88.92
2023-03-02T17:47:23.530Z,88.97
2023-03-02T17:49:50.043Z,89.45
2023-03-02T17:52:17.760Z,89.62
2023-03-02T17:54:44.752Z,89.34
2023-03-02T17:57:11.792Z,89.55
2023-03-02T17:59:38.413Z,88.99
2023-03-02T18:02:04.879Z,89.34
2023-03-02T18:04:31.363Z,89.40
2023-03-02T18:06:57.837Z,89.16
2023-03-02T18:09:24.276Z,89.04
2023-03-02T18:11:50.754Z,89.09
2023-03-02T18:14:20.053Z,88.81
2023-03-02T18:16:46.794Z,88.92
2023-03-02T18:19:13.748Z,88.81
2023-03-02T18:21:41.726Z,88.67
2023-03-02T18:24:08.912Z,89.03
2023-03-02T18:26:35.343Z,89.11
2023-03-02T18:29:01.764Z,88.93
2023-03-02T18:31:28.500Z,89.06
2023-03-02T18:33:55.004Z,89.81
2023-03-02T18:36:21.426Z,89.48
2023-03-02T18:38:47.867Z,89.21
2023-03-02T18:41:14.334Z,89.29
2023-03-02T18:43:41.775Z,89.64
2023-03-02T18:46:17.826Z,90.43
2023-03-02T18:48:44.313Z,90.50
2023-03-02T18:51:10.763Z,90.58
2023-03-02T18:53:38.046Z,90.23
2023-03-02T18:56:04.591Z,90.58
2023-03-02T18:58:34.091Z,90.80
2023-03-02T19:01:00.978Z,90.85
2023-03-02T19:03:27.825Z,91.09
2023-03-02T19:05:57.649Z,91.41
2023-03-02T19:08:25.326Z,91.45
2023-03-02T19:10:52.909Z,91.51
2023-03-02T19:13:20.037Z,91.87
2023-03-02T19:15:47.158Z,91.75
2023-03-02T19:18:18.521Z,92.11
2023-03-02T19:20:45.565Z,91.73
2023-03-02T19:23:12.048Z,91.99
2023-03-02T19:25:38.803Z,92.04
2023-03-02T19:28:06.245Z,92.33
2023-03-02T19:30:34.009Z,92.08
2023-03-02T19:33:01.803Z,91.99
2023-03-02T19:35:29.475Z,92.18
2023-03-02T19:37:56.381Z,92.15
2023-03-02T19:40:24.828Z,92.42
2023-03-02T19:42:52.557Z,92.80
2023-03-02T19:45:24.902Z,92.88
2023-03-02T19:47:51.437Z,92.78
2023-03-02T19:50:19.684Z,92.42
2023-03-02T19:52:46.600Z,92.86
2023-03-02T19:55:14.848Z,92.86
2023-03-02T19:57:42.816Z,92.88
2023-03-02T20:00:13.639Z,92.75
2023-03-02T20:02:40.794Z,92.99
2023-03-02T20:05:09.489Z,92.74
2023-03-02T20:07:36.058Z,92.54
2023-03-02T20:10:02.644Z,93.03
2023-03-02T20:12:29.133Z,93.02
2023-03-02T20:14:56.771Z,92.70
2023-03-02T20:17:23.885Z,93.07
2023-03-02T20:19:51.045Z,93.24
2023-03-02T20:22:17.472Z,93.46
2023-03-02T20:24:43.942Z,93.59
2023-03-02T20:27:12.485Z,93.42
2023-03-02T20:29:41.514Z,93.77
2023-03-02T20:32:09.955Z,93.81
2023-03-02T20:34:37.954Z,94.16
2023-03-02T20:37:06.132Z,93.68
2023-03-02T20:39:35.461Z,93.53
2023-03-02T20:42:02.473Z,93.48
2023-03-02T20:44:30.983Z,93.86
2023-03-02T20:47:01.518Z,94.16
2023-03-02T20:49:30.394Z,94.00
2023-03-02T20:51:58.591Z,93.97
2023-03-02T20:54:28.430Z,94.11
2023-03-02T20:56:55.209Z,94.02
2023-03-02T20:59:22.597Z,93.96
2023-03-02T21:01:49.173Z,94.07
2023-03-02T21:04:15.655Z,94.05
2023-03-02T21:06:42.160Z,94.05
2023-03-02T21:09:09.188Z,94.25
2023-03-02T21:11:36.057Z,94.49
2023-03-02T21:14:03.207Z,94.82
2023-03-02T21:16:36.020Z,94.46
2023-03-02T21:19:04.474Z,94.82
2023-03-02T21:21:41.030Z,94.67
2023-03-02T21:24:09.823Z,94.51
2023-03-02T21:26:36.844Z,94.82
2023-03-02T21:29:05.121Z,95.14
2023-03-02T21:31:31.634Z,95.04
2023-03-02T21:33:58.227Z,95.14
2023-03-02T21:36:26.854Z,95.47
2023-03-02T21:38:54.257Z,95.76
2023-03-02T21:41:21.080Z,95.87
2023-03-02T21:43:47.819Z,95.94
2023-03-02T21:46:16.746Z,96.02
2023-03-02T21:48:43.568Z,96.03
2023-03-02T21:51:11.653Z,96.49
2023-03-02T21:53:38.118Z,96.62
2023-03-02T21:56:04.981Z,96.54
2023-03-02T21:58:31.407Z,95.92
2023-03-02T22:00:57.862Z,96.32
2023-03-02T22:03:24.270Z,96.69
2023-03-02T22:05:51.007Z,96.41
2023-03-02T22:08:18.717Z,96.59
2023-03-02T22:10:47.080Z,96.30
2023-03-02T22:13:15.286Z,96.71
2023-03-02T22:15:41.957Z,96.76
2023-03-02T22:18:15.860Z,96.76
2023-03-02T22:20:44.822Z,96.88
2023-03-02T22:23:23.453Z,96.82
2023-03-02T22:25:52.706Z,97.05
2023-03-02T22:28:21.564Z,96.97
2023-03-02T22:30:49.366Z,97.22
2023-03-02T22:33:19.665Z,97.23
2023-03-02T22:35:47.315Z,97.15
2023-03-02T22:38:23.413Z,97.11
2023-03-02T22:40:50.002Z,97.42
2023-03-02T22:43:29.534Z,97.72
2023-03-02T22:46:05.926Z,97.33
2023-03-02T22:48:35.673Z,97.29
2023-03-02T22:51:22.821Z,97.33
2023-03-02T22:53:57.537Z,97.27
2023-03-02T22:56:26.198Z,97.01
2023-03-02T22:58:52.768Z,96.91
2023-03-02T23:01:25.261Z,97.01
2023-03-02T23:03:54.244Z,97.04
2023-03-02T23:06:31.594Z,96.77
2023-03-02T23:09:00.628Z,96.67
2023-03-02T23:11:27.829Z,96.85
2023-03-02T23:13:54.758Z,96.69
2023-03-02T23:16:27.086Z,96.63
2023-03-02T23:18:56.231Z,96.75
2023-03-02T23:21:45.322Z,96.73
2023-03-02T23:24:12.329Z,96.72
2023-03-02T23:26:39.409Z,96.58
2023-03-02T23:29:06.207Z,96.70
2023-03-02T23:31:32.905Z,96.40
2023-03-02T23:33:59.580Z,96.46
2023-03-02T23:36:27.624Z,96.87
2023-03-02T23:38:54.087Z,96.93
2023-03-02T23:41:20.709Z,97.04
2023-03-02T23:43:47.230Z,96.74
2023-03-02T23:46:14.263Z,97.08
2023-03-02T23:48:42.314Z,96.62
2023-03-02T23:51:09.502Z,96.49
2023-03-02T23:53:35.925Z,96.66
2023-03-02T23:56:02.507Z,96.70
2023-03-02T23:58:28.952Z,96.81
